Time;durP1;ratioP1;P1;durP2;ratioP2;P2;SDS_P1;SDS_P2;PMS_P1;PMS_P2;Temp;Humidity;BMP_temperature;BMP_pressure;BME280_temperature;BME280_humidity;BME280_pressure;Samples;Min_cycle;Max_cycle;Signal;HPM_P1;HPM_P2
2023/07/21 00:00:15;;;;;;;2.78;1.15;;;16.00;99.90;;;;;;4971670;28;20037;-77
2023/07/21 00:02:41;;;;;;;2.63;0.98;;;16.00;99.90;;;;;;4954433;28;20484;-77
2023/07/21 00:05:08;;;;;;;3.50;1.40;;;16.10;99.90;;;;;;4953886;28;20066;-77
2023/07/21 00:07:35;;;;;;;1.52;1.40;;;16.00;99.90;;;;;;4971639;28;20396;-77
2023/07/21 00:10:12;;;;;;;1.45;1.17;;;16.00;99.90;;;;;;4971784;28;20019;-78
2023/07/21 00:12:42;;;;;;;1.98;1.77;;;15.90;99.90;;;;;;4954444;28;20039;-78
2023/07/21 00:15:08;;;;;;;2.53;1.20;;;15.80;99.90;;;;;;4971470;28;20349;-78
2023/07/21 00:17:34;;;;;;;2.10;1.80;;;15.80;99.90;;;;;;4971375;28;20089;-77
2023/07/21 00:20:10;;;;;;;2.90;1.13;;;15.90;99.90;;;;;;4971213;28;20101;-78
2023/07/21 00:22:40;;;;;;;2.25;1.02;;;16.00;99.90;;;;;;4953913;28;20085;-77
2023/07/21 00:25:07;;;;;;;2.15;0.98;;;16.10;99.90;;;;;;4971230;28;20110;-77
2023/07/21 00:27:34;;;;;;;1.67;1.58;;;16.20;99.90;;;;;;4971253;28;20047;-79
2023/07/21 00:29:59;;;;;;;4.50;1.17;;;16.30;99.90;;;;;;4971508;28;20093;-77
2023/07/21 00:32:25;;;;;;;4.00;1.40;;;16.40;99.90;;;;;;4953242;28;20138;-77
2023/07/21 00:34:52;;;;;;;4.45;1.30;;;16.40;99.90;;;;;;4953145;28;20045;-77
2023/07/21 00:37:17;;;;;;;1.95;1.35;;;16.40;99.90;;;;;;4953625;28;20117;-78
2023/07/21 00:39:44;;;;;;;2.78;1.10;;;16.40;99.90;;;;;;4953887;28;20459;-78
2023/07/21 00:42:11;;;;;;;1.27;1.17;;;16.30;99.90;;;;;;4970832;28;20097;-79
2023/07/21 00:44:36;;;;;;;1.10;1.10;;;16.20;99.90;;;;;;4971284;28;20026;-77
2023/07/21 00:47:03;;;;;;;1.25;1.15;;;16.10;99.90;;;;;;4953437;28;20470;-77
2023/07/21 00:49:31;;;;;;;1.00;1.00;;;16.10;99.90;;;;;;4952859;28;20142;-78
2023/07/21 00:51:57;;;;;;;3.45;1.35;;;16.20;99.90;;;;;;4970758;28;20038;-78
2023/07/21 00:54:23;;;;;;;2.60;1.23;;;16.20;99.90;;;;;;4971236;28;20113;-77
2023/07/21 00:56:49;;;;;;;1.73;1.48;;;16.00;99.90;;;;;;4971160;28;20141;-78
2023/07/21 00:59:14;;;;;;;1.02;0.93;;;15.90;99.90;;;;;;4970985;28;20083;-77
2023/07/21 01:01:40;;;;;;;1.67;1.58;;;15.80;99.90;;;;;;4970758;28;20060;-78
2023/07/21 01:04:07;;;;;;;1.48;1.33;;;15.80;99.90;;;;;;4970291;28;20034;-77
2023/07/21 01:06:34;;;;;;;1.00;1.00;;;15.70;99.90;;;;;;4952991;28;20483;-77
2023/07/21 01:09:04;;;;;;;2.70;1.20;;;15.70;99.90;;;;;;4970635;28;20033;-77
2023/07/21 01:11:31;;;;;;;2.80;1.08;;;15.60;99.90;;;;;;4953750;28;20479;-78
2023/07/21 01:14:02;;;;;;;2.45;1.23;;;15.60;99.90;;;;;;4953346;28;20097;-78
2023/07/21 01:16:29;;;;;;;5.13;1.35;;;15.40;99.90;;;;;;4970433;28;20054;-78
2023/07/21 01:18:56;;;;;;;1.40;1.20;;;15.30;99.90;;;;;;4953235;28;20019;-79
2023/07/21 01:21:38;;;;;;;1.48;1.10;;;15.60;99.90;;;;;;4952499;28;20523;-79
2023/07/21 01:24:29;;;;;;;1.98;1.33;;;15.30;99.90;;;;;;4952848;28;20023;-77
2023/07/21 01:26:56;;;;;;;2.72;1.48;;;15.20;99.90;;;;;;4953283;28;20034;-78
2023/07/21 01:29:25;;;;;;;1.40;1.27;;;15.30;99.90;;;;;;4970824;28;20308;-78
2023/07/21 01:31:52;;;;;;;3.10;1.35;;;15.40;99.90;;;;;;4953343;28;20039;-78
2023/07/21 01:34:18;;;;;;;1.40;1.30;;;15.30;99.90;;;;;;4952852;28;20038;-77
2023/07/21 01:36:44;;;;;;;1.25;1.10;;;15.20;99.90;;;;;;4970402;28;20038;-77
2023/07/21 01:39:11;;;;;;;3.15;1.33;;;15.10;99.90;;;;;;4952804;28;20089;-78
2023/07/21 01:41:37;;;;;;;1.70;1.48;;;15.10;99.90;;;;;;4970512;28;20031;-78
2023/07/21 01:44:03;;;;;;;2.90;1.17;;;15.10;99.90;;;;;;4970441;28;20027;-78
2023/07/21 01:46:29;;;;;;;1.65;1.55;;;15.10;99.90;;;;;;4953080;28;20030;-77
2023/07/21 01:48:55;;;;;;;1.88;1.33;;;15.00;99.90;;;;;;4952913;28;20034;-78
2023/07/21 01:51:21;;;;;;;1.20;1.05;;;14.80;99.90;;;;;;4952668;28;20046;-77
2023/07/21 01:53:54;;;;;;;2.28;1.40;;;14.80;99.90;;;;;;4953154;28;20114;-77
2023/07/21 01:56:44;;;;;;;1.45;1.35;;;14.70;99.90;;;;;;4953167;28;20487;-77
2023/07/21 01:59:12;;;;;;;1.80;1.50;;;14.80;99.90;;;;;;4953337;28;20391;-78
2023/07/21 02:01:39;;;;;;;1.58;1.35;;;14.60;99.90;;;;;;4973558;28;20144;-79
2023/07/21 02:04:05;;;;;;;2.85;1.23;;;14.60;99.90;;;;;;4956793;28;20046;-78
2023/07/21 02:06:31;;;;;;;1.58;1.15;;;14.60;99.90;;;;;;4957171;28;20482;-77
2023/07/21 02:08:57;;;;;;;1.88;1.50;;;14.60;99.90;;;;;;4956856;28;20022;-78
2023/07/21 02:11:24;;;;;;;1.42;1.33;;;14.50;99.90;;;;;;4956570;28;20155;-77
2023/07/21 02:13:50;;;;;;;2.60;1.45;;;14.40;99.90;;;;;;4956671;28;20027;-78
2023/07/21 02:16:15;;;;;;;4.53;1.50;;;14.20;99.90;;;;;;4956744;28;20723;-78
2023/07/21 02:18:42;;;;;;;2.22;1.50;;;14.20;99.90;;;;;;4956452;28;20072;-78
2023/07/21 02:21:07;;;;;;;2.10;0.85;;;14.10;99.90;;;;;;4973520;28;20130;-77
2023/07/21 02:23:33;;;;;;;1.65;1.23;;;14.10;99.90;;;;;;4956811;28;20110;-76
2023/07/21 02:25:59;;;;;;;3.65;1.40;;;14.00;99.90;;;;;;4974176;28;20388;-77
2023/07/21 02:28:25;;;;;;;4.88;1.80;;;14.00;99.90;;;;;;4956533;28;20037;-77
2023/07/21 02:31:03;;;;;;;2.13;1.20;;;13.90;99.90;;;;;;4956605;28;20039;-77
2023/07/21 02:33:33;;;;;;;1.88;1.27;;;13.90;99.90;;;;;;4956627;28;20023;-76
2023/07/21 02:36:02;;;;;;;1.35;1.25;;;13.90;99.90;;;;;;4956394;28;20030;-78
2023/07/21 02:38:28;;;;;;;1.75;1.30;;;13.90;99.90;;;;;;4974363;28;20093;-77
2023/07/21 02:40:55;;;;;;;2.05;1.85;;;13.80;99.90;;;;;;4956591;28;20503;-77
2023/07/21 02:43:23;;;;;;;2.80;1.70;;;13.70;99.90;;;;;;4974316;28;20029;-78
2023/07/21 02:45:53;;;;;;;4.45;1.27;;;13.60;99.90;;;;;;4956754;28;20344;-77
2023/07/21 02:48:19;;;;;;;1.52;1.42;;;13.50;99.90;;;;;;4956603;28;20058;-79
2023/07/21 02:50:50;;;;;;;1.70;1.10;;;13.50;99.90;;;;;;4956736;28;20035;-77
2023/07/21 02:53:17;;;;;;;1.48;1.23;;;13.50;99.90;;;;;;4956161;28;20039;-78
2023/07/21 02:55:44;;;;;;;2.13;1.58;;;13.60;99.90;;;;;;4974182;28;20066;-78
2023/07/21 02:58:12;;;;;;;1.88;1.58;;;13.60;99.90;;;;;;4956311;28;20155;-78
2023/07/21 03:00:39;;;;;;;3.55;1.25;;;13.60;99.90;;;;;;4973696;28;20027;-77
2023/07/21 03:03:06;;;;;;;2.10;1.30;;;13.70;99.90;;;;;;4956177;28;20059;-77
2023/07/21 03:05:32;;;;;;;2.45;1.25;;;13.60;99.90;;;;;;4973466;28;20186;-78
2023/07/21 03:07:59;;;;;;;1.50;1.40;;;13.70;99.90;;;;;;4955572;28;20030;-77
2023/07/21 03:10:25;;;;;;;1.42;1.23;;;13.70;99.90;;;;;;4973317;28;20030;-78
2023/07/21 03:12:51;;;;;;;1.90;1.08;;;13.60;99.90;;;;;;4955341;28;20039;-77
2023/07/21 03:15:17;;;;;;;1.27;1.00;;;13.60;99.90;;;;;;4955590;28;20019;-77
2023/07/21 03:17:43;;;;;;;1.42;1.33;;;13.60;99.90;;;;;;4955828;28;20126;-77
2023/07/21 03:20:12;;;;;;;1.38;0.85;;;13.70;99.90;;;;;;4955794;28;20178;-78
2023/07/21 03:22:43;;;;;;;9.82;1.80;;;13.70;99.90;;;;;;4955417;28;20618;-77
2023/07/21 03:25:10;;;;;;;3.45;1.10;;;13.70;99.90;;;;;;4955770;28;20046;-78
2023/07/21 03:27:38;;;;;;;1.38;1.25;;;13.60;99.90;;;;;;4973116;28;20026;-77
2023/07/21 03:30:04;;;;;;;1.63;1.52;;;13.60;99.90;;;;;;4955465;28;20499;-78
2023/07/21 03:32:30;;;;;;;2.28;1.17;;;13.60;99.90;;;;;;4972919;28;20395;-78
2023/07/21 03:34:56;;;;;;;1.15;1.08;;;13.60;99.90;;;;;;4955452;28;20472;-77
2023/07/21 03:37:25;;;;;;;3.85;1.00;;;13.60;99.90;;;;;;4972874;28;20096;-77
2023/07/21 03:39:52;;;;;;;1.30;1.20;;;13.60;99.90;;;;;;4955448;28;20022;-77
2023/07/21 03:42:18;;;;;;;1.20;1.00;;;13.60;99.90;;;;;;4955340;28;20382;-77
2023/07/21 03:44:51;;;;;;;0.95;0.95;;;13.60;99.90;;;;;;4955706;28;20476;-78
2023/07/21 03:47:17;;;;;;;3.60;1.60;;;13.70;99.90;;;;;;4973193;28;20106;-77
2023/07/21 03:49:43;;;;;;;1.65;1.08;;;13.60;99.90;;;;;;4955648;28;20412;-78
2023/07/21 03:52:09;;;;;;;3.45;1.20;;;13.60;99.90;;;;;;4972609;28;20077;-77
2023/07/21 03:54:35;;;;;;;4.43;1.25;;;13.50;99.90;;;;;;4955271;28;20051;-78
2023/07/21 03:57:01;;;;;;;4.30;1.25;;;13.40;99.90;;;;;;4955283;28;20030;-78
2023/07/21 03:59:29;;;;;;;1.00;1.00;;;13.30;99.90;;;;;;4955711;28;20468;-77
2023/07/21 04:01:55;;;;;;;2.25;1.48;;;13.30;99.90;;;;;;4955079;28;20062;-77
2023/07/21 04:04:21;;;;;;;2.10;1.30;;;13.30;99.90;;;;;;4972752;28;20022;-77
2023/07/21 04:06:47;;;;;;;1.55;1.45;;;13.30;99.90;;;;;;4954516;28;20066;-78
2023/07/21 04:09:13;;;;;;;5.60;1.30;;;13.30;99.90;;;;;;4955106;28;20026;-77
2023/07/21 04:11:39;;;;;;;4.40;1.52;;;13.30;99.90;;;;;;4955313;28;20089;-78
2023/07/21 04:14:05;;;;;;;0.80;0.80;;;13.30;99.90;;;;;;4955351;28;20019;-78
2023/07/21 04:16:31;;;;;;;1.52;0.90;;;13.20;99.90;;;;;;4972526;28;20081;-77
2023/07/21 04:18:56;;;;;;;2.70;1.35;;;13.20;99.90;;;;;;4955022;28;20066;-77
2023/07/21 04:21:22;;;;;;;1.35;0.90;;;13.20;99.90;;;;;;4954667;28;20098;-77
2023/07/21 04:23:48;;;;;;;10.45;2.17;;;13.20;99.90;;;;;;4971888;28;20490;-77
2023/07/21 04:26:14;;;;;;;21.17;2.72;;;13.40;99.90;;;;;;4938581;28;20031;-77
2023/07/21 04:28:41;;;;;;;5.88;1.70;;;13.50;99.90;;;;;;4954656;28;20027;-77
2023/07/21 04:31:08;;;;;;;19.80;7.55;;;13.50;99.90;;;;;;4972027;28;20042;-77
2023/07/21 04:33:35;;;;;;;13.32;3.13;;;13.50;99.90;;;;;;4954758;28;20023;-78
2023/07/21 04:36:01;;;;;;;19.08;2.63;;;13.70;99.90;;;;;;4953899;28;20037;-77
2023/07/21 04:38:27;;;;;;;19.90;4.20;;;13.70;99.90;;;;;;4954431;28;20023;-77
2023/07/21 04:40:52;;;;;;;3.50;1.88;;;14.00;99.90;;;;;;4971643;28;20035;-77
2023/07/21 04:43:18;;;;;;;4.65;2.13;;;14.20;99.90;;;;;;4954031;28;20037;-77
2023/07/21 04:45:44;;;;;;;2.22;1.50;;;14.50;99.90;;;;;;4954225;28;20042;-78
2023/07/21 04:48:09;;;;;;;1.85;1.42;;;14.60;99.90;;;;;;4971810;28;20030;-77
2023/07/21 04:50:35;;;;;;;1.88;1.42;;;14.60;99.90;;;;;;4954549;28;20309;-79
2023/07/21 04:53:01;;;;;;;1.20;1.10;;;14.50;99.90;;;;;;4954418;28;20046;-77
2023/07/21 04:55:27;;;;;;;2.17;1.58;;;14.60;99.90;;;;;;4971979;28;20432;-77
2023/07/21 04:57:53;;;;;;;2.35;1.40;;;14.90;99.90;;;;;;4953881;28;20043;-77
2023/07/21 05:00:19;;;;;;;1.60;1.23;;;15.00;99.90;;;;;;4953250;28;20027;-77
2023/07/21 05:02:45;;;;;;;1.13;1.00;;;15.30;99.90;;;;;;4953915;28;20471;-77
2023/07/21 05:05:10;;;;;;;1.67;1.40;;;15.30;99.90;;;;;;4953727;28;20125;-79
2023/07/21 05:07:37;;;;;;;2.28;1.23;;;15.30;99.90;;;;;;4970483;28;20023;-77
2023/07/21 05:10:03;;;;;;;2.30;2.08;;;15.40;99.90;;;;;;4970601;28;20037;-77
2023/07/21 05:12:29;;;;;;;2.95;2.20;;;15.50;99.90;;;;;;4953389;28;20135;-77
2023/07/21 05:14:57;;;;;;;1.67;1.02;;;15.70;99.90;;;;;;4953037;28;20576;-78
2023/07/21 05:17:23;;;;;;;5.60;1.55;;;15.60;99.90;;;;;;4970539;28;20045;-78
2023/07/21 05:19:48;;;;;;;6.47;1.67;;;15.50;99.90;;;;;;4952825;28;20544;-78
2023/07/21 05:22:14;;;;;;;5.22;1.55;;;15.40;99.90;;;;;;4969978;28;20158;-77
2023/07/21 05:24:40;;;;;;;1.35;1.20;;;15.40;99.90;;;;;;4970591;28;20030;-77
2023/07/21 05:27:07;;;;;;;5.85;1.30;;;15.40;99.90;;;;;;4953109;28;20031;-77
2023/07/21 05:29:33;;;;;;;5.35;1.83;;;15.60;99.90;;;;;;4952836;28;20022;-77
2023/07/21 05:32:00;;;;;;;1.77;1.17;;;15.70;99.90;;;;;;4952899;28;20126;-77
2023/07/21 05:34:26;;;;;;;2.85;1.45;;;15.70;99.90;;;;;;4952889;28;20045;-77
2023/07/21 05:36:51;;;;;;;1.67;1.20;;;15.80;99.90;;;;;;4972885;28;20026;-78
2023/07/21 05:39:17;;;;;;;3.50;1.63;;;15.80;99.90;;;;;;4957070;28;20462;-77
2023/07/21 05:41:42;;;;;;;2.45;1.13;;;15.80;99.90;;;;;;4956593;28;20035;-77
2023/07/21 05:44:09;;;;;;;2.95;1.60;;;15.80;99.90;;;;;;4956856;28;20023;-77
2023/07/21 05:46:38;;;;;;;6.25;2.20;;;15.80;99.90;;;;;;4974539;28;20023;-77
2023/07/21 05:49:05;;;;;;;4.38;1.90;;;15.70;99.90;;;;;;4956544;28;20026;-78
2023/07/21 05:51:31;;;;;;;1.92;1.58;;;15.90;99.90;;;;;;4956149;28;20039;-77
2023/07/21 05:53:57;;;;;;;7.50;1.20;;;16.00;99.90;;;;;;4973917;28;20022;-78
2023/07/21 05:56:23;;;;;;;9.20;2.05;;;16.10;99.90;;;;;;4956649;28;20077;-77
2023/07/21 05:58:48;;;;;;;5.30;1.35;;;16.00;99.90;;;;;;4956819;28;20105;-77
2023/07/21 06:01:14;;;;;;;4.38;1.90;;;16.10;99.90;;;;;;4956649;28;20031;-78
2023/07/21 06:03:40;;;;;;;2.22;1.40;;;16.30;99.90;;;;;;4956537;28;20023;-77
2023/07/21 06:06:05;;;;;;;1.88;1.30;;;16.60;99.90;;;;;;4973446;28;20161;-77
2023/07/21 06:08:31;;;;;;;3.17;1.60;;;16.80;99.90;;;;;;4956459;28;20455;-77
2023/07/21 06:10:57;;;;;;;2.83;2.05;;;16.80;99.90;;;;;;4956132;28;20479;-78
2023/07/21 06:13:23;;;;;;;8.95;1.95;;;16.90;99.90;;;;;;4973682;28;20094;-78
2023/07/21 06:15:49;;;;;;;1.27;1.17;;;17.20;99.90;;;;;;4956317;28;20031;-78
2023/07/21 06:18:15;;;;;;;4.45;1.60;;;17.70;99.90;;;;;;4956070;28;20027;-77
2023/07/21 06:20:40;;;;;;;4.40;1.42;;;18.30;99.90;;;;;;4955607;28;20038;-78
2023/07/21 06:23:06;;;;;;;3.00;1.50;;;19.00;99.90;;;;;;4973605;28;20109;-77
2023/07/21 06:25:32;;;;;;;1.65;1.55;;;19.60;99.90;;;;;;4955991;28;20494;-78
2023/07/21 06:27:58;;;;;;;1.30;1.20;;;20.00;99.90;;;;;;4956042;28;20442;-78
2023/07/21 06:30:23;;;;;;;1.90;1.60;;;20.00;99.90;;;;;;4956059;28;20143;-78
2023/07/21 06:32:49;;;;;;;6.70;2.40;;;19.90;99.90;;;;;;4973243;28;20042;-77
2023/07/21 06:35:15;;;;;;;2.70;1.90;;;19.70;99.90;;;;;;4955986;28;20057;-78
2023/07/21 06:37:40;;;;;;;1.33;1.23;;;19.60;99.90;;;;;;4955520;28;20031;-77
2023/07/21 06:40:08;;;;;;;4.53;1.50;;;19.30;99.90;;;;;;4973211;28;20023;-77
2023/07/21 06:42:33;;;;;;;3.38;1.85;;;19.30;99.90;;;;;;4955992;28;20027;-77
2023/07/21 06:44:59;;;;;;;3.42;1.80;;;19.20;99.90;;;;;;4955499;28;20072;-77
2023/07/21 06:47:25;;;;;;;5.25;2.15;;;19.30;99.90;;;;;;4954932;28;20562;-77
2023/07/21 06:49:50;;;;;;;4.28;1.67;;;19.40;99.90;;;;;;4955092;28;20121;-77
2023/07/21 06:52:16;;;;;;;2.05;1.40;;;19.70;99.90;;;;;;4955167;28;20035;-77
2023/07/21 06:54:42;;;;;;;4.40;2.03;;;20.20;99.90;;;;;;4955682;28;20148;-78
2023/07/21 06:57:10;;;;;;;5.47;1.38;;;20.80;99.90;;;;;;4955476;28;20027;-78
2023/07/21 06:59:36;;;;;;;3.40;1.88;;;21.60;99.30;;;;;;4955478;28;20074;-78
2023/07/21 07:02:02;;;;;;;3.60;1.90;;;22.60;96.00;;;;;;4972948;28;20045;-78
2023/07/21 07:04:28;;;;;;;6.55;4.32;;;23.80;93.10;;;;;;4972904;28;20101;-78
2023/07/21 07:06:55;;;;;;;4.10;3.15;;;24.50;90.10;;;;;;4955112;28;20205;-78
2023/07/21 07:09:24;;;;;;;9.73;1.92;;;25.60;85.70;;;;;;4955111;28;20484;-78
2023/07/21 07:11:53;;;;;;;2.95;2.03;;;25.20;83.90;;;;;;4955227;28;20605;-78
2023/07/21 07:14:18;;;;;;;3.53;1.92;;;24.50;82.00;;;;;;4972610;28;20510;-77
2023/07/21 07:16:44;;;;;;;3.22;1.70;;;24.90;82.10;;;;;;4972479;28;20019;-78
2023/07/21 07:19:10;;;;;;;3.88;2.28;;;25.20;82.10;;;;;;4955385;28;20084;-77
2023/07/21 07:21:36;;;;;;;4.47;1.60;;;25.30;81.10;;;;;;4972032;28;20053;-78
2023/07/21 07:24:02;;;;;;;2.05;1.30;;;26.20;79.40;;;;;;4972542;28;20026;-78
2023/07/21 07:26:27;;;;;;;2.97;1.77;;;26.40;77.90;;;;;;4971995;28;20480;-78
2023/07/21 07:28:53;;;;;;;2.50;1.42;;;26.60;76.60;;;;;;4954949;28;20038;-78
2023/07/21 07:31:19;;;;;;;2.88;1.80;;;27.00;73.90;;;;;;4972489;28;20388;-78
2023/07/21 07:33:45;;;;;;;2.30;1.67;;;27.70;70.80;;;;;;4954893;28;20487;-78
2023/07/21 07:36:11;;;;;;;2.58;1.98;;;27.70;68.70;;;;;;4971997;28;20419;-78
2023/07/21 07:38:38;;;;;;;4.78;1.67;;;27.10;69.30;;;;;;4954665;28;20479;-77
2023/07/21 07:41:05;;;;;;;2.65;1.60;;;25.50;73.20;;;;;;4972445;28;20030;-78
2023/07/21 07:43:32;;;;;;;3.00;2.30;;;24.10;75.20;;;;;;4954430;28;20077;-78
2023/07/21 07:45:58;;;;;;;1.75;1.52;;;24.60;74.90;;;;;;4954443;28;20073;-78
2023/07/21 07:48:24;;;;;;;2.25;1.85;;;25.50;73.60;;;;;;4972144;28;20113;-78
2023/07/21 07:50:51;;;;;;;2.35;1.80;;;26.40;71.30;;;;;;4971682;28;20110;-78
2023/07/21 07:53:17;;;;;;;2.25;1.90;;;27.30;68.90;;;;;;4972104;28;20031;-78
2023/07/21 07:55:44;;;;;;;2.30;2.10;;;27.80;67.90;;;;;;4971867;28;20030;-77
2023/07/21 07:58:13;;;;;;;4.40;1.60;;;28.10;66.30;;;;;;4953397;28;20066;-78
2023/07/21 08:00:41;;;;;;;3.13;2.13;;;27.90;65.40;;;;;;4954268;28;20026;-77
2023/07/21 08:03:09;;;;;;;2.17;1.98;;;27.30;67.50;;;;;;4954055;28;20046;-78
2023/07/21 08:05:36;;;;;;;4.43;2.40;;;27.10;68.80;;;;;;4971384;28;20031;-78
2023/07/21 08:08:05;;;;;;;6.40;2.20;;;26.50;70.10;;;;;;4954050;28;20027;-78
2023/07/21 08:10:32;;;;;;;2.88;1.77;;;25.70;69.20;;;;;;4955174;28;20054;-78
2023/07/21 08:12:59;;;;;;;3.47;2.25;;;24.70;71.20;;;;;;4971676;28;20034;-77
2023/07/21 08:15:26;;;;;;;4.68;2.25;;;24.80;71.00;;;;;;4971315;28;20027;-78
2023/07/21 08:17:52;;;;;;;4.38;2.55;;;25.40;69.10;;;;;;4954063;28;20043;-77
2023/07/21 08:20:19;;;;;;;6.15;2.58;;;25.80;70.30;;;;;;4953909;28;20023;-78
2023/07/21 08:22:46;;;;;;;3.28;2.28;;;25.00;72.10;;;;;;4953349;28;20408;-78
2023/07/21 08:25:11;;;;;;;4.38;1.98;;;25.60;71.40;;;;;;4953793;28;20081;-78
2023/07/21 08:27:37;;;;;;;4.55;2.45;;;26.10;70.70;;;;;;4953991;28;20479;-78
2023/07/21 08:30:04;;;;;;;4.38;2.13;;;25.90;69.90;;;;;;4953342;28;20496;-78
2023/07/21 08:32:30;;;;;;;3.47;2.05;;;26.50;69.30;;;;;;4953546;28;20129;-78
2023/07/21 08:34:55;;;;;;;3.20;1.88;;;27.90;66.40;;;;;;4953860;28;20595;-78
2023/07/21 08:37:22;;;;;;;2.25;2.00;;;28.50;64.60;;;;;;4953148;28;20046;-78
2023/07/21 08:39:47;;;;;;;2.70;1.95;;;27.30;66.00;;;;;;4953379;28;20394;-78
2023/07/21 08:42:13;;;;;;;2.30;1.88;;;26.70;67.40;;;;;;4953466;28;20038;-78
2023/07/21 08:44:40;;;;;;;3.47;2.30;;;26.90;70.20;;;;;;4970997;28;20026;-77
2023/07/21 08:47:06;;;;;;;7.68;2.00;;;26.80;70.30;;;;;;4971135;28;20027;-77
2023/07/21 08:49:32;;;;;;;7.88;2.67;;;26.20;67.60;;;;;;4953428;28;20109;-77
2023/07/21 08:51:59;;;;;;;5.18;2.38;;;25.70;69.40;;;;;;4952800;28;20046;-78
2023/07/21 08:54:25;;;;;;;1.63;1.45;;;25.80;69.90;;;;;;4970858;28;20436;-78
2023/07/21 08:56:51;;;;;;;2.88;2.47;;;26.10;70.80;;;;;;4971097;28;20054;-78
2023/07/21 08:59:20;;;;;;;4.47;2.22;;;26.30;68.90;;;;;;4953160;28;20283;-78
2023/07/21 09:01:45;;;;;;;4.35;2.65;;;26.10;68.40;;;;;;4953067;28;20479;-78
2023/07/21 09:04:25;;;;;;;2.13;1.95;;;25.60;69.50;;;;;;4971037;28;20078;-78
2023/07/21 09:07:02;;;;;;;4.63;1.73;;;25.20;70.90;;;;;;4970361;28;20023;-78
2023/07/21 09:09:29;;;;;;;2.55;2.20;;;25.00;73.30;;;;;;4970482;28;20027;-78
2023/07/21 09:12:07;;;;;;;3.38;2.20;;;24.80;72.70;;;;;;4953114;28;20122;-77
2023/07/21 09:14:43;;;;;;;4.82;2.13;;;24.50;74.40;;;;;;4970386;28;20395;-78
2023/07/21 09:17:12;;;;;;;4.97;2.00;;;24.20;73.90;;;;;;4953014;28;20042;-78
2023/07/21 09:19:39;;;;;;;3.05;2.20;;;24.60;72.50;;;;;;4953101;28;20475;-78
2023/07/21 09:22:06;;;;;;;3.25;2.05;;;25.50;70.80;;;;;;4952712;28;20076;-78
2023/07/21 09:24:32;;;;;;;7.88;2.40;;;26.20;71.30;;;;;;4970777;28;20473;-78
2023/07/21 09:27:15;;;;;;;2.55;1.85;;;25.80;69.80;;;;;;4970370;28;20400;-78
2023/07/21 09:29:42;;;;;;;3.08;1.95;;;25.80;73.00;;;;;;4970512;28;20029;-78
2023/07/21 09:32:18;;;;;;;3.25;2.08;;;25.40;69.90;;;;;;4970268;28;20082;-78
2023/07/21 09:35:04;;;;;;;3.95;1.67;;;24.70;72.40;;;;;;4953138;28;20027;-77
2023/07/21 09:37:32;;;;;;;4.10;1.85;;;23.80;74.90;;;;;;4952504;28;20085;-78
2023/07/21 09:40:00;;;;;;;2.33;2.08;;;23.00;77.70;;;;;;4970155;28;20023;-78
2023/07/21 09:42:27;;;;;;;1.55;1.45;;;22.80;79.10;;;;;;4970020;28;20030;-78
2023/07/21 09:44:54;;;;;;;4.15;1.98;;;22.60;81.70;;;;;;4952872;28;20195;-77
2023/07/21 09:47:21;;;;;;;4.10;1.60;;;22.80;82.80;;;;;;4952796;28;20141;-78
2023/07/21 09:49:48;;;;;;;4.35;2.15;;;23.00;85.40;;;;;;4969975;28;20165;-79
2023/07/21 09:52:16;;;;;;;6.80;2.35;;;23.20;89.20;;;;;;4952578;28;20400;-79
2023/07/21 09:54:54;;;;;;;2.47;1.80;;;22.90;86.60;;;;;;4952866;28;20023;-79
2023/07/21 09:57:24;;;;;;;7.05;2.03;;;22.50;87.70;;;;;;4970248;28;20035;-80
2023/07/21 09:59:54;;;;;;;5.53;3.05;;;22.20;92.30;;;;;;4971153;28;20034;-82
2023/07/21 10:02:21;;;;;;;3.28;2.15;;;21.80;97.00;;;;;;4971113;28;20022;-81
2023/07/21 10:04:47;;;;;;;3.30;1.80;;;21.30;99.90;;;;;;4953118;28;20037;-80
2023/07/21 10:07:13;;;;;;;4.13;1.95;;;20.70;99.90;;;;;;4970332;28;20034;-80
2023/07/21 10:09:39;;;;;;;3.60;1.92;;;20.20;99.90;;;;;;4954527;28;20023;-80
2023/07/21 10:12:10;;;;;;;2.75;2.03;;;19.80;99.90;;;;;;4953525;28;20630;-79
2023/07/21 10:14:38;;;;;;;3.75;2.00;;;19.50;99.90;;;;;;4971253;28;20488;-80
2023/07/21 10:17:04;;;;;;;2.30;2.08;;;19.20;99.90;;;;;;4953374;28;20027;-81
2023/07/21 10:19:42;;;;;;;9.27;2.42;;;18.90;99.90;;;;;;4955237;28;20019;-79
2023/07/21 10:22:12;;;;;;;2.42;1.75;;;18.40;99.90;;;;;;4955485;28;20571;-80
2023/07/21 10:24:49;;;;;;;3.08;2.13;;;18.20;99.90;;;;;;4957626;28;20027;-80
2023/07/21 10:27:22;;;;;;;2.03;1.77;;;18.20;99.90;;;;;;4956718;28;20331;-80
2023/07/21 10:30:14;;;;;;;12.95;3.22;;;18.30;99.90;;;;;;4956352;28;20116;-80
2023/07/21 10:32:43;;;;;;;3.75;2.28;;;18.70;99.90;;;;;;4956601;28;20045;-80
2023/07/21 10:35:36;;;;;;;1.83;1.73;;;19.20;99.90;;;;;;4974213;28;20031;-81
2023/07/21 10:38:13;;;;;;;2.08;1.88;;;19.60;99.90;;;;;;4956771;28;20114;-82
2023/07/21 10:40:46;;;;;;;2.10;1.90;;;20.20;99.90;;;;;;4956685;28;20550;-81
2023/07/21 10:43:12;;;;;;;2.25;1.88;;;20.70;99.90;;;;;;4974111;28;20121;-84
2023/07/21 10:45:38;;;;;;;3.47;2.10;;;21.00;99.90;;;;;;4973693;28;20059;-82
2023/07/21 10:48:11;;;;;;;7.68;2.00;;;21.40;99.90;;;;;;4956685;28;20122;-82
2023/07/21 10:50:40;;;;;;;2.88;2.15;;;22.00;99.90;;;;;;4956333;28;20026;-81
2023/07/21 10:53:06;;;;;;;2.80;1.92;;;22.20;99.90;;;;;;4956566;28;20039;-82
2023/07/21 10:55:31;;;;;;;2.60;1.58;;;22.20;99.90;;;;;;4956997;28;20034;-81
2023/07/21 10:57:57;;;;;;;7.25;1.90;;;22.40;99.90;;;;;;4973561;28;20499;-81
2023/07/21 11:00:23;;;;;;;3.30;2.05;;;22.70;99.90;;;;;;4956254;28;20026;-80
2023/07/21 11:02:56;;;;;;;2.47;2.28;;;22.70;99.90;;;;;;4955934;28;20027;-80
2023/07/21 11:05:22;;;;;;;2.47;1.63;;;23.00;99.90;;;;;;4973192;28;20023;-79
2023/07/21 11:07:51;;;;;;;3.55;1.83;;;23.30;99.90;;;;;;4955813;28;20027;-79
2023/07/21 11:10:16;;;;;;;3.88;2.03;;;23.60;99.90;;;;;;4955647;28;20041;-79
2023/07/21 11:12:48;;;;;;;1.92;1.60;;;23.90;99.90;;;;;;4972932;28;20039;-79
2023/07/21 11:15:17;;;;;;;4.10;2.03;;;23.80;99.90;;;;;;4955631;28;20384;-79
2023/07/21 11:17:44;;;;;;;1.95;1.77;;;23.70;99.90;;;;;;4955212;28;20038;-79
2023/07/21 11:20:10;;;;;;;6.00;1.95;;;24.00;99.90;;;;;;4954885;28;20062;-79
2023/07/21 11:22:36;;;;;;;1.65;1.20;;;24.00;99.90;;;;;;4972180;28;20061;-79
2023/07/21 11:25:10;;;;;;;1.40;1.20;;;24.00;99.90;;;;;;4954692;28;20023;-79
2023/07/21 11:27:41;;;;;;;3.20;1.60;;;24.40;99.90;;;;;;4972842;28;20032;-79
2023/07/21 11:30:08;;;;;;;1.48;1.35;;;25.00;99.90;;;;;;4955352;28;20062;-79
2023/07/21 11:32:34;;;;;;;1.77;1.67;;;24.80;98.80;;;;;;4955049;28;20086;-78
2023/07/21 11:35:03;;;;;;;3.20;1.83;;;25.10;96.70;;;;;;4955003;28;20045;-79
2023/07/21 11:37:45;;;;;;;1.98;1.65;;;25.30;94.30;;;;;;4972287;28;20023;-78
2023/07/21 11:40:15;;;;;;;3.55;1.20;;;25.10;94.10;;;;;;4954789;28;20030;-79
2023/07/21 11:42:46;;;;;;;2.08;1.60;;;24.60;93.00;;;;;;4972114;28;20015;-78
2023/07/21 11:45:41;;;;;;;7.05;1.85;;;24.20;93.90;;;;;;4972151;28;20069;-79
2023/07/21 11:48:18;;;;;;;4.28;1.77;;;23.80;94.60;;;;;;4955765;28;20118;-78
2023/07/21 11:50:55;;;;;;;5.65;2.20;;;23.20;94.10;;;;;;4954337;28;20069;-79
2023/07/21 11:53:22;;;;;;;2.10;1.17;;;23.20;96.40;;;;;;4971792;28;20377;-79
2023/07/21 11:55:49;;;;;;;1.63;1.50;;;23.30;95.00;;;;;;4971777;28;20523;-79
2023/07/21 11:58:14;;;;;;;2.38;1.60;;;23.40;95.10;;;;;;4954387;28;20027;-79
2023/07/21 12:00:43;;;;;;;2.38;1.63;;;23.70;94.70;;;;;;4954440;28;20093;-79
2023/07/21 12:03:10;;;;;;;3.55;1.50;;;23.90;94.50;;;;;;4954449;28;20027;-79
2023/07/21 12:05:36;;;;;;;1.38;1.27;;;24.60;94.80;;;;;;4971591;28;20041;-79
2023/07/21 12:08:03;;;;;;;2.63;1.13;;;24.90;92.00;;;;;;4971849;28;20102;-78
2023/07/21 12:10:29;;;;;;;1.95;1.17;;;24.70;92.70;;;;;;4971516;28;20071;-78
2023/07/21 12:12:55;;;;;;;2.20;1.23;;;24.90;91.90;;;;;;4970964;28;20097;-79
2023/07/21 12:15:21;;;;;;;1.38;0.88;;;24.70;91.70;;;;;;4971352;28;20030;-79
2023/07/21 12:17:50;;;;;;;1.10;1.00;;;24.40;91.00;;;;;;4953928;28;20543;-78
2023/07/21 12:20:17;;;;;;;5.78;1.63;;;24.20;91.60;;;;;;4953682;28;20030;-79
2023/07/21 12:22:43;;;;;;;1.20;1.10;;;24.10;91.80;;;;;;4953979;28;20507;-79
2023/07/21 12:25:09;;;;;;;2.00;0.85;;;24.70;91.90;;;;;;4971729;28;20022;-78
2023/07/21 12:27:36;;;;;;;1.75;1.08;;;24.60;90.40;;;;;;4971242;28;20484;-78
2023/07/21 12:30:07;;;;;;;2.05;1.40;;;24.50;91.00;;;;;;4971185;28;20034;-78
2023/07/21 12:32:33;;;;;;;1.92;1.55;;;24.60;90.50;;;;;;4937854;28;20066;-79
2023/07/21 12:34:58;;;;;;;2.83;1.38;;;25.30;89.80;;;;;;4953377;28;20073;-78
2023/07/21 12:37:24;;;;;;;1.35;1.25;;;25.70;88.70;;;;;;4970233;28;20477;-79
2023/07/21 12:39:51;;;;;;;1.48;1.13;;;26.10;86.40;;;;;;4971095;28;20023;-78
2023/07/21 12:42:17;;;;;;;1.60;1.30;;;26.20;87.20;;;;;;4953471;28;20037;-79
2023/07/21 12:44:43;;;;;;;1.13;1.05;;;25.70;86.50;;;;;;4970470;28;20027;-78
2023/07/21 12:47:09;;;;;;;2.33;1.10;;;26.40;81.40;;;;;;4971072;28;20019;-79